createdAt,value
2023-03-22T00:01:53.547Z,64.79
2023-03-22T00:04:24.368Z,64.82
2023-03-22T00:06:54.843Z,64.86
2023-03-22T00:09:26.201Z,64.95
2023-03-22T00:11:57.044Z,65.04
2023-03-22T00:14:27.532Z,64.88
2023-03-22T00:16:57.820Z,64.83
2023-03-22T00:19:28.868Z,64.75
2023-03-22T00:22:00.477Z,64.69
2023-03-22T00:24:31.469Z,64.50
2023-03-22T00:27:02.136Z,64.41
2023-03-22T00:29:32.521Z,64.53
2023-03-22T00:32:03.922Z,64.56
2023-03-22T00:34:34.818Z,64.71
2023-03-22T00:37:05.666Z,64.60
2023-03-22T00:39:35.969Z,64.52
2023-03-22T00:42:07.032Z,64.54
2023-03-22T00:44:37.539Z,64.50
2023-03-22T00:47:07.945Z,64.56
2023-03-22T00:49:38.103Z,64.42
2023-03-22T00:52:08.257Z,64.40
2023-03-22T00:54:39.267Z,64.22
2023-03-22T00:57:10.041Z,64.12
2023-03-22T00:59:40.424Z,64.00
2023-03-22T01:02:13.088Z,64.01
2023-03-22T01:04:46.105Z,63.88
2023-03-22T01:07:21.205Z,63.86
2023-03-22T01:09:52.315Z,63.79
2023-03-22T01:12:22.692Z,63.60
2023-03-22T01:14:53.043Z,63.46
2023-03-22T01:17:23.277Z,63.46
2023-03-22T01:19:54.187Z,63.48
2023-03-22T01:22:24.461Z,63.50
2023-03-22T01:24:55.217Z,63.61
2023-03-22T01:27:25.386Z,63.51
2023-03-22T01:29:55.919Z,63.49
2023-03-22T01:32:26.304Z,63.44
2023-03-22T01:34:56.655Z,63.24
2023-03-22T01:37:27.530Z,63.27
2023-03-22T01:39:58.092Z,63.10
2023-03-22T01:42:28.758Z,62.88
2023-03-22T01:45:45.636Z,62.95
2023-03-22T01:48:24.132Z,62.60
2023-03-22T01:50:59.781Z,62.61
2023-03-22T01:53:31.661Z,62.48
2023-03-22T01:56:02.731Z,62.42
2023-03-22T01:58:34.047Z,62.55
2023-03-22T02:01:04.900Z,62.54
2023-03-22T02:03:49.348Z,62.58
2023-03-22T02:06:20.272Z,62.61
2023-03-22T02:08:52.627Z,62.69
2023-03-22T02:11:29.310Z,62.71
2023-03-22T02:14:12.004Z,62.74
2023-03-22T02:16:50.997Z,62.77
2023-03-22T02:19:42.030Z,62.81
2023-03-22T02:23:05.723Z,62.76
2023-03-22T02:26:03.674Z,62.80
2023-03-22T02:28:41.461Z,62.90
2023-03-22T02:31:23.034Z,62.98
2023-03-22T02:34:24.284Z,62.57
2023-03-22T02:37:07.958Z,62.58
2023-03-22T02:39:42.059Z,62.65
2023-03-22T02:42:22.497Z,62.58
2023-03-22T02:44:59.576Z,62.65
2023-03-22T02:47:38.932Z,62.48
2023-03-22T02:50:14.609Z,62.43
2023-03-22T02:52:49.540Z,62.56
2023-03-22T02:55:23.064Z,62.73
2023-03-22T02:57:57.349Z,62.66
2023-03-22T03:00:28.253Z,62.72
2023-03-22T03:03:00.919Z,62.75
2023-03-22T03:05:32.830Z,62.80
2023-03-22T03:08:04.078Z,63.01
2023-03-22T03:10:35.250Z,63.09
2023-03-22T03:13:06.168Z,63.29
2023-03-22T03:15:37.181Z,63.41
2023-03-22T03:18:23.937Z,63.45
2023-03-22T03:21:02.624Z,63.31
2023-03-22T03:23:40.453Z,63.13
2023-03-22T03:26:14.955Z,63.06
2023-03-22T03:28:50.412Z,62.97
2023-03-22T03:31:27.263Z,62.95
2023-03-22T03:34:03.459Z,62.94
2023-03-22T03:36:37.684Z,62.78
2023-03-22T03:39:10.909Z,62.83
2023-03-22T03:41:42.025Z,62.68
2023-03-22T03:44:13.125Z,62.64
2023-03-22T03:46:43.746Z,62.47
2023-03-22T03:49:15.214Z,62.52
2023-03-22T03:51:51.846Z,62.33
2023-03-22T03:54:23.621Z,62.21
2023-03-22T03:56:54.243Z,62.23
2023-03-22T03:59:24.975Z,61.86
2023-03-22T04:01:55.552Z,61.82
2023-03-22T04:04:27.856Z,61.67
2023-03-22T04:07:00.113Z,61.58
2023-03-22T04:09:33.128Z,61.38
2023-03-22T04:12:03.541Z,61.01
2023-03-22T04:14:34.458Z,60.76
2023-03-22T04:17:04.903Z,60.40
2023-03-22T04:19:35.335Z,60.24
2023-03-22T04:22:05.483Z,60.39
2023-03-22T04:24:37.888Z,60.65
2023-03-22T04:27:09.137Z,60.65
2023-03-22T04:29:40.339Z,60.37
2023-03-22T04:32:11.039Z,60.24
2023-03-22T04:34:42.176Z,60.27
2023-03-22T04:37:12.886Z,60.11
2023-03-22T04:39:43.203Z,60.07
2023-03-22T04:42:14.017Z,59.93
2023-03-22T04:44:44.557Z,59.81
2023-03-22T04:47:14.960Z,59.39
2023-03-22T04:49:45.387Z,59.18
2023-03-22T04:52:15.544Z,59.15
2023-03-22T04:54:45.869Z,58.99
2023-03-22T04:57:17.490Z,58.83
2023-03-22T04:59:47.742Z,58.66
2023-03-22T05:02:18.018Z,58.37
2023-03-22T05:04:48.757Z,58.36
2023-03-22T05:07:19.042Z,58.05
2023-03-22T05:09:50.011Z,57.80
2023-03-22T05:12:20.789Z,57.65
2023-03-22T05:14:51.143Z,57.71
2023-03-22T05:17:21.519Z,57.43
2023-03-22T05:19:51.954Z,57.60
2023-03-22T05:22:22.536Z,57.47
2023-03-22T05:24:53.559Z,57.61
2023-03-22T05:27:31.021Z,57.66
2023-03-22T05:30:01.676Z,57.53
2023-03-22T05:32:32.133Z,57.14
2023-03-22T05:35:05.034Z,56.80
2023-03-22T05:37:36.245Z,56.66
2023-03-22T05:40:09.714Z,56.72
2023-03-22T05:42:40.083Z,56.18
2023-03-22T05:45:12.394Z,55.68
2023-03-22T05:47:42.951Z,55.56
2023-03-22T05:50:15.223Z,55.32
2023-03-22T05:52:46.150Z,54.63
2023-03-22T05:55:17.904Z,54.02
2023-03-22T05:57:51.263Z,53.61
2023-03-22T06:00:23.652Z,52.96
2023-03-22T06:02:56.234Z,52.66
2023-03-22T06:05:26.756Z,51.74
2023-03-22T06:07:57.966Z,51.22
2023-03-22T06:10:28.480Z,50.74
2023-03-22T06:12:58.815Z,50.18
2023-03-22T06:15:29.246Z,49.40
2023-03-22T06:17:59.788Z,47.84
2023-03-22T06:20:30.032Z,47.74
2023-03-22T06:23:00.538Z,47.35
2023-03-22T06:25:31.631Z,46.78
2023-03-22T06:28:02.318Z,46.27
2023-03-22T06:30:32.755Z,46.03
2023-03-22T06:33:05.160Z,45.91
2023-03-22T06:35:35.730Z,45.66
2023-03-22T06:38:06.129Z,45.45
2023-03-22T06:40:36.357Z,45.06
2023-03-22T06:43:07.426Z,44.64
2023-03-22T06:45:37.926Z,44.59
2023-03-22T06:48:09.058Z,44.24
2023-03-22T06:50:43.959Z,44.10
2023-03-22T06:53:14.514Z,43.57
2023-03-22T06:55:44.871Z,43.64
2023-03-22T06:58:15.151Z,43.01
2023-03-22T07:00:45.724Z,42.83
2023-03-22T07:03:16.392Z,42.25
2023-03-22T07:05:47.690Z,41.37
2023-03-22T07:08:17.960Z,40.77
2023-03-22T07:10:51.734Z,39.75
2023-03-22T07:13:21.881Z,39.27
2023-03-22T07:15:54.107Z,38.72
2023-03-22T07:18:24.532Z,37.81
2023-03-22T07:20:54.900Z,37.20
2023-03-22T07:23:25.754Z,35.81
2023-03-22T07:25:56.228Z,34.82
2023-03-22T07:28:26.891Z,34.73
2023-03-22T07:31:03.085Z,34.52
2023-03-22T07:33:33.375Z,33.37
2023-03-22T07:36:04.304Z,32.06
2023-03-22T07:38:35.013Z,31.16
2023-03-22T07:41:05.924Z,30.27
2023-03-22T07:43:50.881Z,28.61
2023-03-22T07:46:23.657Z,27.01
2023-03-22T07:48:53.937Z,24.72
2023-03-22T07:51:24.530Z,24.61
2023-03-22T07:53:54.808Z,24.05
2023-03-22T07:56:25.800Z,23.20
2023-03-22T07:58:56.074Z,21.75
2023-03-22T08:01:26.776Z,20.10
2023-03-22T08:03:56.904Z,19.75
2023-03-22T08:06:28.130Z,19.17
2023-03-22T08:08:58.371Z,18.11
2023-03-22T08:11:28.645Z,17.48
2023-03-22T08:13:59.112Z,17.49
2023-03-22T08:16:29.712Z,18.76
2023-03-22T08:19:00.204Z,20.00
2023-03-22T08:21:30.637Z,21.24
2023-03-22T08:24:00.746Z,22.29
2023-03-22T08:26:32.018Z,22.94
2023-03-22T08:29:02.891Z,24.33
2023-03-22T08:31:33.316Z,25.45
2023-03-22T08:34:03.721Z,26.40
2023-03-22T08:36:33.996Z,27.10
2023-03-22T08:39:04.655Z,27.67
2023-03-22T08:41:35.263Z,28.36
2023-03-22T08:44:05.683Z,29.24
2023-03-22T08:46:36.273Z,29.93
2023-03-22T08:49:06.616Z,30.73
2023-03-22T08:51:36.997Z,31.13
2023-03-22T08:54:08.304Z,31.34
2023-03-22T08:56:38.896Z,32.07
2023-03-22T08:59:10.244Z,32.15
2023-03-22T09:01:40.622Z,32.32
2023-03-22T09:04:11.587Z,32.56
2023-03-22T09:06:45.183Z,32.25
2023-03-22T09:09:15.831Z,32.47
2023-03-22T09:11:46.172Z,32.98
2023-03-22T09:14:16.714Z,33.15
2023-03-22T09:16:47.759Z,33.39
2023-03-22T09:19:18.257Z,33.43
2023-03-22T09:21:49.800Z,33.78
2023-03-22T09:24:20.309Z,33.96
2023-03-22T09:26:51.159Z,33.49
2023-03-22T09:29:21.576Z,33.88
2023-03-22T09:31:52.100Z,33.90
2023-03-22T09:34:22.389Z,33.90
2023-03-22T09:36:53.425Z,34.04
2023-03-22T09:39:23.968Z,33.77
2023-03-22T09:41:56.762Z,33.89
2023-03-22T09:44:29.963Z,34.59
2023-03-22T09:47:02.213Z,34.47
2023-03-22T09:49:52.286Z,34.40
2023-03-22T09:52:23.686Z,34.51
2023-03-22T09:54:55.151Z,33.78
2023-03-22T09:57:30.100Z,33.90
2023-03-22T10:00:11.435Z,34.17
2023-03-22T10:02:49.088Z,35.09
2023-03-22T10:05:27.592Z,35.27
2023-03-22T10:08:32.828Z,34.84
2023-03-22T10:11:03.073Z,34.84
2023-03-22T10:13:37.661Z,34.72
2023-03-22T10:16:12.974Z,34.36
2023-03-22T10:18:46.947Z,34.33
2023-03-22T10:21:18.106Z,33.95
2023-03-22T10:23:50.414Z,33.60
2023-03-22T10:26:23.775Z,33.30
2023-03-22T10:29:03.886Z,33.61
2023-03-22T10:31:36.175Z,33.97
2023-03-22T10:34:08.581Z,34.10
2023-03-22T10:36:40.431Z,34.04
2023-03-22T10:39:16.466Z,33.59
2023-03-22T10:41:46.863Z,33.18
2023-03-22T10:44:18.889Z,33.37
2023-03-22T10:46:51.233Z,33.49
2023-03-22T10:49:28.044Z,33.73
2023-03-22T10:52:01.490Z,33.90
2023-03-22T10:54:32.756Z,33.95
2023-03-22T10:57:03.275Z,34.18
2023-03-22T10:59:48.984Z,33.95
2023-03-22T11:02:21.465Z,33.62
2023-03-22T11:04:53.714Z,34.21
2023-03-22T11:07:35.859Z,34.53
2023-03-22T11:10:32.405Z,34.61
2023-03-22T11:13:21.365Z,34.86
2023-03-22T11:15:58.934Z,34.51
2023-03-22T11:18:32.212Z,34.26
2023-03-22T11:21:05.429Z,34.25
2023-03-22T11:23:38.225Z,34.39
2023-03-22T11:26:11.536Z,34.47
2023-03-22T11:28:48.558Z,34.20
2023-03-22T11:31:19.889Z,33.93
2023-03-22T11:33:58.203Z,34.03
2023-03-22T11:36:29.421Z,34.02
2023-03-22T11:39:02.397Z,33.56
2023-03-22T11:41:36.933Z,33.77
2023-03-22T11:44:08.558Z,33.49
2023-03-22T11:46:39.782Z,33.42
2023-03-22T11:49:13.968Z,33.05
2023-03-22T11:51:44.673Z,33.56
2023-03-22T11:54:20.598Z,33.64
2023-03-22T11:56:51.104Z,32.99
2023-03-22T11:59:25.915Z,32.86
2023-03-22T12:02:01.805Z,33.29
2023-03-22T12:04:36.761Z,33.93
2023-03-22T12:07:10.545Z,34.12
2023-03-22T12:09:44.387Z,33.45
2023-03-22T12:12:18.948Z,32.32
2023-03-22T12:14:53.023Z,32.06
2023-03-22T12:17:30.768Z,32.12
2023-03-22T12:20:08.255Z,32.17
2023-03-22T12:22:41.991Z,32.38
2023-03-22T12:25:18.664Z,32.20
2023-03-22T12:27:50.738Z,32.28
2023-03-22T12:30:23.306Z,31.82
2023-03-22T12:32:58.653Z,32.17
2023-03-22T12:35:31.379Z,31.45
2023-03-22T12:38:12.555Z,31.34
2023-03-22T12:40:45.660Z,31.14
2023-03-22T12:43:19.762Z,31.38
2023-03-22T12:45:53.763Z,31.31
2023-03-22T12:48:32.400Z,31.56
2023-03-22T12:51:07.041Z,31.62
2023-03-22T12:53:43.329Z,31.91
2023-03-22T12:56:16.392Z,31.71
2023-03-22T12:58:51.497Z,31.94
2023-03-22T13:01:33.433Z,31.96
2023-03-22T13:04:51.434Z,32.23
2023-03-22T13:07:40.754Z,32.55
2023-03-22T13:10:47.123Z,32.39
2023-03-22T13:13:33.593Z,32.60
2023-03-22T13:16:16.364Z,32.71
2023-03-22T13:19:01.724Z,32.97
2023-03-22T13:21:35.540Z,33.18
2023-03-22T13:24:23.748Z,32.98
2023-03-22T13:26:56.593Z,32.74
2023-03-22T13:29:36.794Z,32.72
2023-03-22T13:32:28.410Z,32.95
2023-03-22T13:34:59.221Z,33.18
2023-03-22T13:37:35.434Z,33.29
2023-03-22T13:40:14.708Z,33.52
2023-03-22T13:42:45.147Z,33.77
2023-03-22T13:45:31.789Z,33.83
2023-03-22T13:48:07.849Z,33.88
2023-03-22T13:50:39.720Z,34.10
2023-03-22T13:53:16.956Z,34.46
2023-03-22T13:56:01.283Z,34.31
2023-03-22T13:58:38.368Z,34.35
2023-03-22T14:01:13.442Z,34.35
2023-03-22T14:03:45.795Z,34.69
2023-03-22T14:06:21.501Z,35.77
2023-03-22T14:08:55.364Z,35.95
2023-03-22T14:11:29.828Z,36.02
2023-03-22T14:14:04.327Z,36.16
2023-03-22T14:16:39.259Z,36.38
2023-03-22T14:19:15.084Z,36.80
